Ternholm — OWIM2 — position and weather

sailwx.info

Track history (hours):
 
Tides and Currents Weather Stations Pressure Air Temp Water Temp Dewpoint Dewpoint Depression Visibility Wind Speed Wind Dir Waves Ship Positions

Ternholm

Last reported at 2017-Jul-22 16:30 UTC. Time now 2017-Jul-22 16:45 UTC.
Position N 55°54' E 016°19'.

Length 141 m; draft 8.7 m.

Type: Tanker. MMSI: 219076000.

Date/timePositionNaut miles runAvg speedWind from/ knotsBaromVisibWave heightAir tempDewpointWater temp
2017-Jul-22 16:30N 55°54' E 016°19'611.3
2017-Jul-22 16:00N 55°52' E 016°10'611.3
2017-Jul-22 15:30N 55°49' E 016°01'611.2
2017-Jul-22 15:00N 55°46' E 015°52'1111.0
2017-Jul-22 14:00N 55°41' E 015°35'511.0
2017-Jul-22 13:30N 55°38' E 015°27'611.1
2017-Jul-22 13:00N 55°35' E 015°18'611.0
2017-Jul-22 12:30N 55°32' E 015°10'510.9
2017-Jul-22 12:00N 55°31' E 015°01'611.3
2017-Jul-22 11:30N 55°28' E 014°52'611.3
2017-Jul-22 11:00N 55°26' E 014°44'510.6
2017-Jul-22 10:30N 55°22' E 014°37'511.0
2017-Jul-22 10:00N 55°17' E 014°32'611.3
2017-Jul-22 09:30N 55°13' E 014°26'611.0
2017-Jul-22 09:00N 55°09' E 014°19'611.6
2017-Jul-22 08:30N 55°04' E 014°12'611.2
2017-Jul-22 08:00N 55°01' E 014°05'1112.0
2017-Jul-22 07:06N 54°57' E 013°47'211.1
2017-Jul-22 06:58N 54°57' E 013°45'3011.4
2017-Jul-22 04:22N 54°48' E 012°56'3 9.6
2017-Jul-22 04:00N 54°47' E 012°50'610.9
2017-Jul-22 03:26N 54°44' E 012°40'611.0
2017-Jul-22 02:51N 54°41' E 012°31'410.9
2017-Jul-22 02:30N 54°38' E 012°26'510.7
2017-Jul-22 02:00N 54°35' E 012°19'611.2
2017-Jul-22 01:30N 54°30' E 012°16'510.7
2017-Jul-22 01:00N 54°25' E 012°11'1610.6
2017-Jul-21 23:31N 54°25' E 011°44'011.2
2017-Jul-21 23:30N 54°25' E 011°43'510.8
2017-Jul-21 23:00N 54°28' E 011°35'610.7
2017-Jul-21 22:29N 54°31' E 011°27'710.7
2017-Jul-21 21:50N 54°34' E 011°16'310.4
2017-Jul-21 21:30N 54°35' E 011°11'510.4
2017-Jul-21 21:00N 54°38' E 011°03'510.1
2017-Jul-21 20:30N 54°41' E 010°56'4 8.8
2017-Jul-21 20:00N 54°44' E 010°51'5 9.8
2017-Jul-21 19:30N 54°49' E 010°52'4 9.0
2017-Jul-21 19:00N 54°53' E 010°53'4 8.8
2017-Jul-21 18:30N 54°57' E 010°57'5 9.3
2017-Jul-21 17:59N 55°01' E 011°01'510.3
2017-Jul-21 17:28N 55°07' E 011°02'510.1
2017-Jul-21 17:00N 55°11' E 011°04'5 9.2
2017-Jul-21 16:28N 55°16' E 011°04'510.4
2017-Jul-21 15:59N 55°21' E 011°02'510.2
2017-Jul-21 15:29N 55°25' E 010°58'510.9
2017-Jul-21 15:00N 55°30' E 010°53'510.1
2017-Jul-21 14:30N 55°35' E 010°49'510.0
2017-Jul-21 13:59N 55°40' E 010°46'510.5
2017-Jul-21 13:30N 55°45' E 010°48'510.2
2017-Jul-21 12:59N 55°50' E 010°48'510.2
2017-Jul-21 12:29N 55°54' E 010°54'510.2
2017-Jul-21 11:59N 55°58' E 011°00'510.2
2017-Jul-21 11:29N 56°02' E 011°05'510.3
2017-Jul-21 11:00N 56°06' E 011°09'4411.2
2017-Jul-21 07:03N 56°44' E 011°50'211.0
2017-Jul-21 06:52N 56°46' E 011°51'410.9
2017-Jul-21 06:30N 56°50' E 011°48'511.0
2017-Jul-21 06:00N 56°55' E 011°45'510.9
2017-Jul-21 05:30N 57°00' E 011°41'610.9
2017-Jul-21 04:59N 57°06' E 011°38'510.9
2017-Jul-21 04:29N 57°11' E 011°35'510.8
2017-Jul-21 04:00N 57°16' E 011°32'510.8
2017-Jul-21 03:30N 57°21' E 011°32'611.5
2017-Jul-21 03:00N 57°27' E 011°34'611.2
2017-Jul-21 02:30N 57°32' E 011°36'510.3
2017-Jul-21 02:00N 57°37' E 011°40'510.2
2017-Jul-21 01:30N 57°40' E 011°47'3 6.1
2017-Jul-21 01:00N 57°41' E 011°52'0 0.0
2017-Jul-21 00:29N 57°41' E 011°52'0 0.0
2017-Jul-20 23:59N 57°41' E 011°52'0 0.0
2017-Jul-20 23:29N 57°41' E 011°52'0 0.0
2017-Jul-20 22:59N 57°41' E 011°52'0 0.0
2017-Jul-20 22:29N 57°41' E 011°52'0 0.0
2017-Jul-20 21:59N 57°41' E 011°52'0 0.0
2017-Jul-20 21:29N 57°41' E 011°52'0 0.0
2017-Jul-20 20:59N 57°41' E 011°52'0 0.0
2017-Jul-20 20:29N 57°41' E 011°52'0 0.0
2017-Jul-20 19:59N 57°41' E 011°52'0 0.0
2017-Jul-20 19:29N 57°41' E 011°52'0 0.0
2017-Jul-20 18:59N 57°41' E 011°52'0 0.0
2017-Jul-20 18:29N 57°41' E 011°52'0 0.0
2017-Jul-20 17:59N 57°41' E 011°52'0 0.0
2017-Jul-20 17:29N 57°41' E 011°52'0 0.0
2017-Jul-20 16:59N 57°41' E 011°52'0 0.0
2017-Jul-20 16:29N 57°41' E 011°52'0 0.0
2017-Jul-20 15:59N 57°41' E 011°52'0 0.0
2017-Jul-20 15:29N 57°41' E 011°52'0 0.0
2017-Jul-20 14:59N 57°41' E 011°52'0 0.0
2017-Jul-20 13:59N 57°41' E 011°52'0 0.0
2017-Jul-20 13:29N 57°41' E 011°52'0 0.0
2017-Jul-20 12:59N 57°41' E 011°52'0 0.0
2017-Jul-20 12:29N 57°41' E 011°52'0 0.0
2017-Jul-20 11:59N 57°41' E 011°52'0 0.0
2017-Jul-20 11:29N 57°41' E 011°52'0 0.0
2017-Jul-20 10:56N 57°41' E 011°52'0 0.0
2017-Jul-20 10:29N 57°41' E 011°52'0 0.0
2017-Jul-20 09:59N 57°41' E 011°52'0 0.0
2017-Jul-20 09:29N 57°41' E 011°52'0 0.0
2017-Jul-20 08:59N 57°41' E 011°52'0 0.0
2017-Jul-20 08:29N 57°41' E 011°52'0 0.0
2017-Jul-20 07:59N 57°41' E 011°52'0 0.0
2017-Jul-20 07:29N 57°41' E 011°52'0 0.0
2017-Jul-20 06:59N 57°41' E 011°52'0 0.0
2017-Jul-20 06:29N 57°41' E 011°52'0 0.0
2017-Jul-20 05:59N 57°41' E 011°52'0 0.0
2017-Jul-20 05:29N 57°41' E 011°52'0 0.0
2017-Jul-20 04:59N 57°41' E 011°52'0 0.0
2017-Jul-20 04:28N 57°41' E 011°52'0 0.0
2017-Jul-20 03:58N 57°41' E 011°52'0 0.0
2017-Jul-20 03:28N 57°41' E 011°52'0 0.0
2017-Jul-20 02:58N 57°41' E 011°52'0 0.0
2017-Jul-20 02:28N 57°41' E 011°52'0 0.0
2017-Jul-20 01:58N 57°41' E 011°52'0 0.0
2017-Jul-20 01:28N 57°41' E 011°52'0 0.0
2017-Jul-20 00:58N 57°41' E 011°52'0 0.0
2017-Jul-20 00:28N 57°41' E 011°52'0 0.0
2017-Jul-19 23:58N 57°41' E 011°52'0 0.0
2017-Jul-19 23:28N 57°41' E 011°52'0 0.0
2017-Jul-19 22:58N 57°41' E 011°52'0 0.0
2017-Jul-19 22:28N 57°41' E 011°52'0 0.0
2017-Jul-19 21:58N 57°41' E 011°52'0 0.0
2017-Jul-19 21:28N 57°41' E 011°52'0 0.0
2017-Jul-19 20:58N 57°41' E 011°52'0 0.0
2017-Jul-19 20:28N 57°41' E 011°52'0 0.0
2017-Jul-19 19:58N 57°41' E 011°52'0 0.0
2017-Jul-19 19:30N 57°41' E 011°52'1 1.3
2017-Jul-19 19:01N 57°41' E 011°51'4 8.4
2017-Jul-19 18:31N 57°41' E 011°43'1 2.1
2017-Jul-19 18:01N 57°41' E 011°42'0 0.1
2017-Jul-19 17:29N 57°41' E 011°42'0 0.0
2017-Jul-19 16:59N 57°41' E 011°42'0 0.0
2017-Jul-19 16:29N 57°41' E 011°42'0 0.0
2017-Jul-19 15:59N 57°41' E 011°42'0 0.0
2017-Jul-19 15:29N 57°41' E 011°42'0 0.0
2017-Jul-19 14:59N 57°41' E 011°42'0 0.0
2017-Jul-19 14:29N 57°41' E 011°42'0 0.0
2017-Jul-19 13:59N 57°41' E 011°42'0 0.0
2017-Jul-19 13:29N 57°41' E 011°42'0 0.0
2017-Jul-19 12:59N 57°41' E 011°42'0 0.0
2017-Jul-19 12:29N 57°41' E 011°42'0 0.0
2017-Jul-19 11:59N 57°41' E 011°42'0 0.0
2017-Jul-19 11:29N 57°41' E 011°42'0 0.0
2017-Jul-19 10:59N 57°41' E 011°42'0 0.0
2017-Jul-19 10:29N 57°41' E 011°42'0 0.0
2017-Jul-19 09:59N 57°41' E 011°42'0 0.0
2017-Jul-19 09:29N 57°41' E 011°42'0 0.0
2017-Jul-19 08:59N 57°41' E 011°42'0 0.0
2017-Jul-19 08:29N 57°41' E 011°42'0 0.0
2017-Jul-19 07:59N 57°41' E 011°42'0 0.0
2017-Jul-19 07:29N 57°41' E 011°42'0 0.0
2017-Jul-19 06:59N 57°41' E 011°42'0 0.0
2017-Jul-19 06:29N 57°41' E 011°42'0 0.0
2017-Jul-19 05:53N 57°41' E 011°42'0 0.0
2017-Jul-19 05:29N 57°41' E 011°42'0 0.0
2017-Jul-19 04:59N 57°41' E 011°42'0 0.0
2017-Jul-19 04:28N 57°41' E 011°42'0 0.0
2017-Jul-19 03:58N 57°41' E 011°42'0 0.0
2017-Jul-19 03:28N 57°41' E 011°42'0 0.0
2017-Jul-19 02:58N 57°41' E 011°42'0 0.0
2017-Jul-19 02:28N 57°41' E 011°42'0 0.0
2017-Jul-19 01:58N 57°41' E 011°42'0 0.0
2017-Jul-19 01:28N 57°41' E 011°42'0 0.0
2017-Jul-19 00:58N 57°41' E 011°42'0 0.0
2017-Jul-19 00:28N 57°41' E 011°42'0 0.0
2017-Jul-18 23:58N 57°41' E 011°42'0 0.0
2017-Jul-18 23:28N 57°41' E 011°42'0 0.0
2017-Jul-18 22:58N 57°41' E 011°42'0 0.0
2017-Jul-18 22:28N 57°41' E 011°42'0 0.0
2017-Jul-18 21:58N 57°41' E 011°42'0 0.0
2017-Jul-18 21:28N 57°41' E 011°42'0 0.0
2017-Jul-18 20:58N 57°41' E 011°42'0 0.0
2017-Jul-18 20:28N 57°41' E 011°42'0 0.1
2017-Jul-18 19:58N 57°41' E 011°42'0 0.1
2017-Jul-18 19:28N 57°41' E 011°42'0 0.0
2017-Jul-18 18:58N 57°41' E 011°42'0 0.0
2017-Jul-18 18:28N 57°41' E 011°42'0 0.0
2017-Jul-18 17:58N 57°41' E 011°42'0 0.0
2017-Jul-18 17:28N 57°41' E 011°42'0 0.0
2017-Jul-18 16:58N 57°41' E 011°42'0 0.0
2017-Jul-18 16:28N 57°41' E 011°42'0 0.0
2017-Jul-18 15:58N 57°41' E 011°42'0 0.0
2017-Jul-18 15:28N 57°41' E 011°42'0 0.0
2017-Jul-18 14:58N 57°41' E 011°42'5 4.8
2017-Jul-18 14:00N 57°41' E 011°50'1 2.1
2017-Jul-18 13:30N 57°41' E 011°52'0 0.0
2017-Jul-18 13:00N 57°41' E 011°52'0 0.0
2017-Jul-18 12:30N 57°41' E 011°52'0 0.0
2017-Jul-18 12:00N 57°41' E 011°52'0 0.0
2017-Jul-18 11:30N 57°41' E 011°52'0 0.0
2017-Jul-18 10:59N 57°41' E 011°52'0 0.0
2017-Jul-18 10:29N 57°41' E 011°52'0 0.0
2017-Jul-18 09:59N 57°41' E 011°52'0 0.0
2017-Jul-18 09:29N 57°41' E 011°52'0 0.0
2017-Jul-18 08:59N 57°41' E 011°52'0 0.0
2017-Jul-18 08:29N 57°41' E 011°52'0 0.0
2017-Jul-18 07:59N 57°41' E 011°52'0 0.0
2017-Jul-18 07:29N 57°41' E 011°52'0 0.0
2017-Jul-18 06:59N 57°41' E 011°52'0 0.0
2017-Jul-18 06:29N 57°41' E 011°52'0 0.0
2017-Jul-18 05:59N 57°41' E 011°52'0 0.0
2017-Jul-18 05:29N 57°41' E 011°52'0 0.0
2017-Jul-18 04:59N 57°41' E 011°52'0 0.0
2017-Jul-18 04:29N 57°41' E 011°52'0 0.0
2017-Jul-18 03:59N 57°41' E 011°52'0 0.0
2017-Jul-18 03:29N 57°41' E 011°52'0 0.0
2017-Jul-18 02:59N 57°41' E 011°52'0 0.0
2017-Jul-18 02:29N 57°41' E 011°52'0 0.0
2017-Jul-18 01:59N 57°41' E 011°52'0 0.0
2017-Jul-18 01:29N 57°41' E 011°52'0 0.0
2017-Jul-18 00:59N 57°41' E 011°52'0 0.0
2017-Jul-18 00:29N 57°41' E 011°52'0 0.0
2017-Jul-17 23:59N 57°41' E 011°52'0 0.0
2017-Jul-17 23:29N 57°41' E 011°52'0 0.0
2017-Jul-17 22:59N 57°41' E 011°52'0 0.0
2017-Jul-17 22:29N 57°41' E 011°52'0 0.0
2017-Jul-17 21:59N 57°41' E 011°52'0 0.0
2017-Jul-17 21:29N 57°41' E 011°52'0 0.0
2017-Jul-17 20:59N 57°41' E 011°52'0 0.0
2017-Jul-17 20:29N 57°41' E 011°52'0 0.0
2017-Jul-17 19:59N 57°41' E 011°52'0 0.0
2017-Jul-17 19:29N 57°41' E 011°52'0 0.0
2017-Jul-17 18:59N 57°41' E 011°52'0 0.0
2017-Jul-17 18:29N 57°41' E 011°52'0 0.0
2017-Jul-17 17:59N 57°41' E 011°52'0 0.0
2017-Jul-17 17:29N 57°41' E 011°52'0 0.0
2017-Jul-17 16:59N 57°41' E 011°52'0 0.0
2017-Jul-17 16:29N 57°41' E 011°52'0 0.0
2017-Jul-17 15:59N 57°41' E 011°52'0 0.0
2017-Jul-17 15:29N 57°41' E 011°52'0 0.0
2017-Jul-17 14:59N 57°41' E 011°52'0 0.0
2017-Jul-17 14:29N 57°41' E 011°52'0 0.0
2017-Jul-17 13:59N 57°41' E 011°52'0 0.0
2017-Jul-17 13:29N 57°41' E 011°52'0 0.0
2017-Jul-17 12:59N 57°41' E 011°52'0 0.0
2017-Jul-17 12:29N 57°41' E 011°52'0 0.0
2017-Jul-17 11:59N 57°41' E 011°52'0 0.0
2017-Jul-17 11:29N 57°41' E 011°52'0 0.0
2017-Jul-17 10:59N 57°41' E 011°52'0 0.0
2017-Jul-17 10:29N 57°41' E 011°52'0 0.0
2017-Jul-17 09:59N 57°41' E 011°52'0 0.0
2017-Jul-17 09:29N 57°41' E 011°52'0 0.0
2017-Jul-17 08:59N 57°41' E 011°52'0 0.0
2017-Jul-17 08:26N 57°41' E 011°52'0 0.0
2017-Jul-17 07:59N 57°41' E 011°52'0 0.0
2017-Jul-17 07:29N 57°41' E 011°52'0 0.0
2017-Jul-17 06:59N 57°41' E 011°52'0 0.0
2017-Jul-17 06:29N 57°41' E 011°52'0 0.0
2017-Jul-17 05:59N 57°41' E 011°52'0 0.0
2017-Jul-17 05:29N 57°41' E 011°52'0 0.0
2017-Jul-17 04:59N 57°41' E 011°52'0 0.0
2017-Jul-17 04:29N 57°41' E 011°52'0 0.0
2017-Jul-17 03:59N 57°41' E 011°52'0 0.0
2017-Jul-17 03:29N 57°41' E 011°52'0 0.0
2017-Jul-17 02:59N 57°41' E 011°52'0 0.0
2017-Jul-17 02:29N 57°41' E 011°52'0 0.0
2017-Jul-17 01:58N 57°41' E 011°52'0 0.0
2017-Jul-17 01:28N 57°41' E 011°52'0 0.0
2017-Jul-17 00:58N 57°41' E 011°52'0 0.0
2017-Jul-17 00:28N 57°41' E 011°52'0 0.0
2017-Jul-16 23:58N 57°41' E 011°52'0 0.0
2017-Jul-16 23:28N 57°41' E 011°52'0 0.0
2017-Jul-16 22:58N 57°41' E 011°52'0 0.0
2017-Jul-16 22:28N 57°41' E 011°52'0 0.0
2017-Jul-16 21:58N 57°41' E 011°52'0 0.0
2017-Jul-16 21:28N 57°41' E 011°52'0 0.0
2017-Jul-16 20:58N 57°41' E 011°52'0 0.0
2017-Jul-16 20:28N 57°41' E 011°52'0 0.0
2017-Jul-16 19:58N 57°41' E 011°52'0 0.0
2017-Jul-16 19:28N 57°41' E 011°52'0 0.0
2017-Jul-16 18:58N 57°41' E 011°52'0 0.0
2017-Jul-16 18:28N 57°41' E 011°52'0 0.0
2017-Jul-16 17:58N 57°41' E 011°52'0 0.0
2017-Jul-16 17:28N 57°41' E 011°52'0 0.0
2017-Jul-16 17:00N 57°41' E 011°52'1 1.8
2017-Jul-16 16:30N 57°41' E 011°51'2 4.1
2017-Jul-16 16:00N 57°40' E 011°48'0 0.1
2017-Jul-16 15:30N 57°40' E 011°48'0 0.1
2017-Jul-16 15:00N 57°40' E 011°48'0 0.1
2017-Jul-16 14:30N 57°40' E 011°48'0 0.1
2017-Jul-16 14:00N 57°40' E 011°47'0 0.1
2017-Jul-16 13:30N 57°40' E 011°47'0 0.0
2017-Jul-16 13:00N 57°40' E 011°47'0 0.2
2017-Jul-16 12:30N 57°40' E 011°48'2 4.1
2017-Jul-16 12:00N 57°39' E 011°44'510.6
2017-Jul-16 11:30N 57°35' E 011°39'5 9.6
2017-Jul-16 11:00N 57°30' E 011°37'5 9.8
2017-Jul-16 10:30N 57°25' E 011°36'5 9.9
2017-Jul-16 10:00N 57°20' E 011°36'5 9.8
2017-Jul-16 09:29N 57°15' E 011°36'5 9.7
2017-Jul-16 08:57N 57°10' E 011°39'5 9.7
2017-Jul-16 08:26N 57°06' E 011°42'4 9.7
2017-Jul-16 08:00N 57°01' E 011°44'20 9.2
2017-Jul-16 05:46N 56°41' E 011°50'3 9.7
2017-Jul-16 05:27N 56°39' E 011°47'31 9.8
2017-Jul-16 02:18N 56°12' E 011°19'57 8.6
2017-Jul-15 19:43N 55°16' E 011°05'2 9.8
2017-Jul-15 19:29N 55°14' E 011°06'5 9.3
2017-Jul-15 18:59N 55°10' E 011°03'5 9.7
2017-Jul-15 18:30N 55°05' E 011°03'5 9.7
2017-Jul-15 18:00N 55°00' E 011°02'5 9.4
2017-Jul-15 17:30N 54°56' E 010°57'5 9.6
2017-Jul-15 17:00N 54°52' E 010°53'5 9.7
2017-Jul-15 16:30N 54°47' E 010°52'5 9.8
2017-Jul-15 16:00N 54°42' E 010°53'5 9.6
2017-Jul-15 15:30N 54°40' E 011°00'5 9.6
2017-Jul-15 15:00N 54°37' E 011°07'9 9.4
2017-Jul-15 14:00N 54°33' E 011°22'5 9.7
2017-Jul-15 13:27N 54°31' E 011°30'4 9.6
2017-Jul-15 13:00N 54°29' E 011°37'5 9.6
2017-Jul-15 12:26N 54°27' E 011°46'4 9.5
2017-Jul-15 12:00N 54°27' E 011°53'5 9.3
2017-Jul-15 11:30N 54°27' E 012°01'10 7.9
2017-Jul-15 10:13N 54°33' E 012°14'2 9.8
2017-Jul-15 09:59N 54°35' E 012°15'4 9.1
2017-Jul-15 09:30N 54°39' E 012°20'5 9.6
2017-Jul-15 09:00N 54°41' E 012°27'5 9.7
2017-Jul-15 08:30N 54°44' E 012°34'5 9.7
2017-Jul-15 08:00N 54°47' E 012°41'5 9.3
2017-Jul-15 07:30N 54°48' E 012°48'5 9.5
2017-Jul-15 06:59N 54°50' E 012°56'5 9.5
2017-Jul-15 06:30N 54°51' E 013°04'5 9.5
2017-Jul-15 06:00N 54°53' E 013°12'5 9.5
2017-Jul-15 05:30N 54°55' E 013°20'5 9.5
2017-Jul-15 05:00N 54°56' E 013°27'5 9.5
2017-Jul-15 04:30N 54°58' E 013°35'5 9.5
2017-Jul-15 04:00N 54°60' E 013°43'5 9.5
2017-Jul-15 03:30N 55°01' E 013°50'5 9.5
2017-Jul-15 03:00N 55°03' E 013°58'5 9.4
2017-Jul-15 02:30N 55°05' E 014°06'5 9.5
2017-Jul-15 02:00N 55°08' E 014°11'5 9.5
2017-Jul-15 01:30N 55°12' E 014°16'5 9.5
2017-Jul-15 01:00N 55°16' E 014°21'5 9.5
2017-Jul-15 00:30N 55°20' E 014°26'5 9.5
2017-Jul-15 00:00N 55°23' E 014°31'5 9.4
2017-Jul-14 23:30N 55°27' E 014°37'5 9.4
2017-Jul-14 23:00N 55°30' E 014°44'5 9.5
2017-Jul-14 22:30N 55°32' E 014°51'5 9.3
2017-Jul-14 22:00N 55°34' E 014°58'5 9.4
2017-Jul-14 21:30N 55°37' E 015°05'5 9.5
2017-Jul-14 21:00N 55°39' E 015°13'5 9.5
2017-Jul-14 20:30N 55°41' E 015°20'5 9.5
2017-Jul-14 20:00N 55°44' E 015°27'5 9.5
2017-Jul-14 19:30N 55°46' E 015°34'5 9.5
2017-Jul-14 19:00N 55°49' E 015°42'5 9.5
2017-Jul-14 18:30N 55°51' E 015°49'5 9.5
2017-Jul-14 18:00N 55°53' E 015°56'5 9.4
2017-Jul-14 17:30N 55°55' E 016°04'5 9.1
2017-Jul-14 17:00N 55°57' E 016°11'4 9.0
2017-Jul-14 16:30N 55°59' E 016°18'5 9.5
2017-Jul-14 16:00N 56°02' E 016°26'5 9.5
2017-Jul-14 15:30N 56°04' E 016°33'5 9.5
2017-Jul-14 15:00N 56°07' E 016°40'5 9.5
2017-Jul-14 14:30N 56°10' E 016°47'5 9.5
2017-Jul-14 13:58N 56°13' E 016°54'5 9.5
2017-Jul-14 13:29N 56°16' E 017°01'5 9.5
2017-Jul-14 13:00N 56°18' E 017°07'5 9.5
2017-Jul-14 12:30N 56°21' E 017°14'19710.1
2017-Jul-13 17:05N 58°51' E 021°12'110.5
2017-Jul-13 16:58N 58°52' E 021°14'510.5
2017-Jul-13 16:30N 58°55' E 021°19'510.5
2017-Jul-13 16:01N 58°60' E 021°25'510.5
2017-Jul-13 15:30N 59°04' E 021°32'510.5
2017-Jul-13 15:01N 59°08' E 021°38'510.5
2017-Jul-13 14:30N 59°11' E 021°46'510.5
2017-Jul-13 14:00N 59°15' E 021°54'510.5
2017-Jul-13 13:30N 59°18' E 022°02'510.5
2017-Jul-13 13:00N 59°21' E 022°10'510.4
2017-Jul-13 12:30N 59°24' E 022°18'510.5
2017-Jul-13 12:01N 59°27' E 022°26'510.4
2017-Jul-13 11:31N 59°30' E 022°35'510.5
2017-Jul-13 11:01N 59°33' E 022°44'510.5
2017-Jul-13 10:31N 59°34' E 022°54'510.5
2017-Jul-13 10:00N 59°36' E 023°04'510.0
2017-Jul-13 09:30N 59°37' E 023°13'510.5
2017-Jul-13 09:00N 59°38' E 023°23'510.5
2017-Jul-13 08:31N 59°40' E 023°33'510.5
2017-Jul-13 08:01N 59°41' E 023°43'510.4
2017-Jul-13 07:31N 59°43' E 023°53'510.5
2017-Jul-13 07:01N 59°44' E 024°03'510.5
2017-Jul-13 06:30N 59°46' E 024°13'510.5
2017-Jul-13 06:01N 59°47' E 024°23'510.5
2017-Jul-13 05:30N 59°48' E 024°33'510.5
2017-Jul-13 05:01N 59°49' E 024°43'510.5
2017-Jul-13 04:30N 59°50' E 024°54'510.5
2017-Jul-13 04:00N 59°51' E 025°04'510.5
2017-Jul-13 03:31N 59°52' E 025°14'510.5
2017-Jul-13 03:00N 59°53' E 025°24'510.5
2017-Jul-13 02:30N 59°54' E 025°35'510.5
2017-Jul-13 02:01N 59°55' E 025°45'510.5
2017-Jul-13 01:31N 59°57' E 025°55'510.5
2017-Jul-13 01:01N 59°58' E 026°05'510.5
2017-Jul-13 00:30N 59°59' E 026°15'510.5
2017-Jul-13 00:00N 60°01' E 026°25'510.4
2017-Jul-12 23:31N 60°02' E 026°35'510.7
2017-Jul-12 23:01N 60°01' E 026°46'611.5
2017-Jul-12 22:30N 59°60' E 026°57'510.1
2017-Jul-12 22:00N 60°00' E 027°07'510.2
2017-Jul-12 21:30N 60°03' E 027°16'5 9.8
2017-Jul-12 21:00N 60°06' E 027°24'510.6
2017-Jul-12 20:30N 60°08' E 027°33'510.1
2017-Jul-12 20:00N 60°11' E 027°42'510.6
2017-Jul-12 19:30N 60°11' E 027°53'5 9.4
2017-Jul-12 19:00N 60°10' E 028°02'510.3
2017-Jul-12 18:31N 60°09' E 028°12'611.7
2017-Jul-12 18:00N 60°06' E 028°22'510.2
2017-Jul-12 17:30N 60°03' E 028°31'4 8.1
2017-Jul-12 17:00N 60°00' E 028°36'  
Track history (hours):
 
Tides and Currents Weather Stations Pressure Air Temp Water Temp Dewpoint Dewpoint Depression Visibility Wind Speed Wind Dir Waves Ship Positions

Ternholm

Last reported at 2017-Jul-22 16:30 UTC. Time now 2017-Jul-22 16:45 UTC.
Position N 55°54' E 016°19'.

Length 141 m; draft 8.7 m.

Type: Tanker. MMSI: 219076000.

Date/timePositionNaut miles runAvg speedWind from/ knotsBaromVisibWave heightAir tempDewpointWater temp
2017-Jul-22 16:30N 55°54' E 016°19'611.3
2017-Jul-22 16:00N 55°52' E 016°10'611.3
2017-Jul-22 15:30N 55°49' E 016°01'611.2
2017-Jul-22 15:00N 55°46' E 015°52'1111.0
2017-Jul-22 14:00N 55°41' E 015°35'511.0
2017-Jul-22 13:30N 55°38' E 015°27'611.1
2017-Jul-22 13:00N 55°35' E 015°18'611.0
2017-Jul-22 12:30N 55°32' E 015°10'510.9
2017-Jul-22 12:00N 55°31' E 015°01'611.3
2017-Jul-22 11:30N 55°28' E 014°52'611.3
2017-Jul-22 11:00N 55°26' E 014°44'510.6
2017-Jul-22 10:30N 55°22' E 014°37'511.0
2017-Jul-22 10:00N 55°17' E 014°32'611.3
2017-Jul-22 09:30N 55°13' E 014°26'611.0
2017-Jul-22 09:00N 55°09' E 014°19'611.6
2017-Jul-22 08:30N 55°04' E 014°12'611.2
2017-Jul-22 08:00N 55°01' E 014°05'1112.0
2017-Jul-22 07:06N 54°57' E 013°47'211.1
2017-Jul-22 06:58N 54°57' E 013°45'3011.4
2017-Jul-22 04:22N 54°48' E 012°56'3 9.6
2017-Jul-22 04:00N 54°47' E 012°50'610.9
2017-Jul-22 03:26N 54°44' E 012°40'611.0
2017-Jul-22 02:51N 54°41' E 012°31'410.9
2017-Jul-22 02:30N 54°38' E 012°26'510.7
2017-Jul-22 02:00N 54°35' E 012°19'611.2
2017-Jul-22 01:30N 54°30' E 012°16'510.7
2017-Jul-22 01:00N 54°25' E 012°11'1610.6
2017-Jul-21 23:31N 54°25' E 011°44'011.2
2017-Jul-21 23:30N 54°25' E 011°43'510.8
2017-Jul-21 23:00N 54°28' E 011°35'610.7
2017-Jul-21 22:29N 54°31' E 011°27'710.7
2017-Jul-21 21:50N 54°34' E 011°16'310.4
2017-Jul-21 21:30N 54°35' E 011°11'510.4
2017-Jul-21 21:00N 54°38' E 011°03'510.1
2017-Jul-21 20:30N 54°41' E 010°56'4 8.8
2017-Jul-21 20:00N 54°44' E 010°51'5 9.8
2017-Jul-21 19:30N 54°49' E 010°52'4 9.0
2017-Jul-21 19:00N 54°53' E 010°53'4 8.8
2017-Jul-21 18:30N 54°57' E 010°57'5 9.3
2017-Jul-21 17:59N 55°01' E 011°01'510.3
2017-Jul-21 17:28N 55°07' E 011°02'510.1
2017-Jul-21 17:00N 55°11' E 011°04'5 9.2
2017-Jul-21 16:28N 55°16' E 011°04'510.4
2017-Jul-21 15:59N 55°21' E 011°02'510.2
2017-Jul-21 15:29N 55°25' E 010°58'510.9
2017-Jul-21 15:00N 55°30' E 010°53'510.1
2017-Jul-21 14:30N 55°35' E 010°49'510.0
2017-Jul-21 13:59N 55°40' E 010°46'510.5
2017-Jul-21 13:30N 55°45' E 010°48'510.2
2017-Jul-21 12:59N 55°50' E 010°48'510.2
2017-Jul-21 12:29N 55°54' E 010°54'510.2
2017-Jul-21 11:59N 55°58' E 011°00'510.2
2017-Jul-21 11:29N 56°02' E 011°05'510.3
2017-Jul-21 11:00N 56°06' E 011°09'4411.2
2017-Jul-21 07:03N 56°44' E 011°50'211.0
2017-Jul-21 06:52N 56°46' E 011°51'410.9
2017-Jul-21 06:30N 56°50' E 011°48'511.0
2017-Jul-21 06:00N 56°55' E 011°45'510.9
2017-Jul-21 05:30N 57°00' E 011°41'610.9
2017-Jul-21 04:59N 57°06' E 011°38'510.9
2017-Jul-21 04:29N 57°11' E 011°35'510.8
2017-Jul-21 04:00N 57°16' E 011°32'510.8
2017-Jul-21 03:30N 57°21' E 011°32'611.5
2017-Jul-21 03:00N 57°27' E 011°34'611.2
2017-Jul-21 02:30N 57°32' E 011°36'510.3
2017-Jul-21 02:00N 57°37' E 011°40'510.2
2017-Jul-21 01:30N 57°40' E 011°47'3 6.1
2017-Jul-21 01:00N 57°41' E 011°52'0 0.0
2017-Jul-21 00:29N 57°41' E 011°52'0 0.0
2017-Jul-20 23:59N 57°41' E 011°52'0 0.0
2017-Jul-20 23:29N 57°41' E 011°52'0 0.0
2017-Jul-20 22:59N 57°41' E 011°52'0 0.0
2017-Jul-20 22:29N 57°41' E 011°52'0 0.0
2017-Jul-20 21:59N 57°41' E 011°52'0 0.0
2017-Jul-20 21:29N 57°41' E 011°52'0 0.0
2017-Jul-20 20:59N 57°41' E 011°52'0 0.0
2017-Jul-20 20:29N 57°41' E 011°52'0 0.0
2017-Jul-20 19:59N 57°41' E 011°52'0 0.0
2017-Jul-20 19:29N 57°41' E 011°52'0 0.0
2017-Jul-20 18:59N 57°41' E 011°52'0 0.0
2017-Jul-20 18:29N 57°41' E 011°52'0 0.0
2017-Jul-20 17:59N 57°41' E 011°52'0 0.0
2017-Jul-20 17:29N 57°41' E 011°52'0 0.0
2017-Jul-20 16:59N 57°41' E 011°52'0 0.0
2017-Jul-20 16:29N 57°41' E 011°52'0 0.0
2017-Jul-20 15:59N 57°41' E 011°52'0 0.0
2017-Jul-20 15:29N 57°41' E 011°52'0 0.0
2017-Jul-20 14:59N 57°41' E 011°52'0 0.0
2017-Jul-20 13:59N 57°41' E 011°52'0 0.0
2017-Jul-20 13:29N 57°41' E 011°52'0 0.0
2017-Jul-20 12:59N 57°41' E 011°52'0 0.0
2017-Jul-20 12:29N 57°41' E 011°52'0 0.0
2017-Jul-20 11:59N 57°41' E 011°52'0 0.0
2017-Jul-20 11:29N 57°41' E 011°52'0 0.0
2017-Jul-20 10:56N 57°41' E 011°52'0 0.0
2017-Jul-20 10:29N 57°41' E 011°52'0 0.0
2017-Jul-20 09:59N 57°41' E 011°52'0 0.0
2017-Jul-20 09:29N 57°41' E 011°52'0 0.0
2017-Jul-20 08:59N 57°41' E 011°52'0 0.0
2017-Jul-20 08:29N 57°41' E 011°52'0 0.0
2017-Jul-20 07:59N 57°41' E 011°52'0 0.0
2017-Jul-20 07:29N 57°41' E 011°52'0 0.0
2017-Jul-20 06:59N 57°41' E 011°52'0 0.0
2017-Jul-20 06:29N 57°41' E 011°52'0 0.0
2017-Jul-20 05:59N 57°41' E 011°52'0 0.0
2017-Jul-20 05:29N 57°41' E 011°52'0 0.0
2017-Jul-20 04:59N 57°41' E 011°52'0 0.0
2017-Jul-20 04:28N 57°41' E 011°52'0 0.0
2017-Jul-20 03:58N 57°41' E 011°52'0 0.0
2017-Jul-20 03:28N 57°41' E 011°52'0 0.0
2017-Jul-20 02:58N 57°41' E 011°52'0 0.0
2017-Jul-20 02:28N 57°41' E 011°52'0 0.0
2017-Jul-20 01:58N 57°41' E 011°52'0 0.0
2017-Jul-20 01:28N 57°41' E 011°52'0 0.0
2017-Jul-20 00:58N 57°41' E 011°52'0 0.0
2017-Jul-20 00:28N 57°41' E 011°52'0 0.0
2017-Jul-19 23:58N 57°41' E 011°52'0 0.0
2017-Jul-19 23:28N 57°41' E 011°52'0 0.0
2017-Jul-19 22:58N 57°41' E 011°52'0 0.0
2017-Jul-19 22:28N 57°41' E 011°52'0 0.0
2017-Jul-19 21:58N 57°41' E 011°52'0 0.0
2017-Jul-19 21:28N 57°41' E 011°52'0 0.0
2017-Jul-19 20:58N 57°41' E 011°52'0 0.0
2017-Jul-19 20:28N 57°41' E 011°52'0 0.0
2017-Jul-19 19:58N 57°41' E 011°52'0 0.0
2017-Jul-19 19:30N 57°41' E 011°52'1 1.3
2017-Jul-19 19:01N 57°41' E 011°51'4 8.4
2017-Jul-19 18:31N 57°41' E 011°43'1 2.1
2017-Jul-19 18:01N 57°41' E 011°42'0 0.1
2017-Jul-19 17:29N 57°41' E 011°42'0 0.0
2017-Jul-19 16:59N 57°41' E 011°42'0 0.0
2017-Jul-19 16:29N 57°41' E 011°42'0 0.0
2017-Jul-19 15:59N 57°41' E 011°42'0 0.0
2017-Jul-19 15:29N 57°41' E 011°42'0 0.0
2017-Jul-19 14:59N 57°41' E 011°42'0 0.0
2017-Jul-19 14:29N 57°41' E 011°42'0 0.0
2017-Jul-19 13:59N 57°41' E 011°42'0 0.0
2017-Jul-19 13:29N 57°41' E 011°42'0 0.0
2017-Jul-19 12:59N 57°41' E 011°42'0 0.0
2017-Jul-19 12:29N 57°41' E 011°42'0 0.0
2017-Jul-19 11:59N 57°41' E 011°42'0 0.0
2017-Jul-19 11:29N 57°41' E 011°42'0 0.0
2017-Jul-19 10:59N 57°41' E 011°42'0 0.0
2017-Jul-19 10:29N 57°41' E 011°42'0 0.0
2017-Jul-19 09:59N 57°41' E 011°42'0 0.0
2017-Jul-19 09:29N 57°41' E 011°42'0 0.0
2017-Jul-19 08:59N 57°41' E 011°42'0 0.0
2017-Jul-19 08:29N 57°41' E 011°42'0 0.0
2017-Jul-19 07:59N 57°41' E 011°42'0 0.0
2017-Jul-19 07:29N 57°41' E 011°42'0 0.0
2017-Jul-19 06:59N 57°41' E 011°42'0 0.0
2017-Jul-19 06:29N 57°41' E 011°42'0 0.0
2017-Jul-19 05:53N 57°41' E 011°42'0 0.0
2017-Jul-19 05:29N 57°41' E 011°42'0 0.0
2017-Jul-19 04:59N 57°41' E 011°42'0 0.0
2017-Jul-19 04:28N 57°41' E 011°42'0 0.0
2017-Jul-19 03:58N 57°41' E 011°42'0 0.0
2017-Jul-19 03:28N 57°41' E 011°42'0 0.0
2017-Jul-19 02:58N 57°41' E 011°42'0 0.0
2017-Jul-19 02:28N 57°41' E 011°42'0 0.0
2017-Jul-19 01:58N 57°41' E 011°42'0 0.0
2017-Jul-19 01:28N 57°41' E 011°42'0 0.0
2017-Jul-19 00:58N 57°41' E 011°42'0 0.0
2017-Jul-19 00:28N 57°41' E 011°42'0 0.0
2017-Jul-18 23:58N 57°41' E 011°42'0 0.0
2017-Jul-18 23:28N 57°41' E 011°42'0 0.0
2017-Jul-18 22:58N 57°41' E 011°42'0 0.0
2017-Jul-18 22:28N 57°41' E 011°42'0 0.0
2017-Jul-18 21:58N 57°41' E 011°42'0 0.0
2017-Jul-18 21:28N 57°41' E 011°42'0 0.0
2017-Jul-18 20:58N 57°41' E 011°42'0 0.0
2017-Jul-18 20:28N 57°41' E 011°42'0 0.1
2017-Jul-18 19:58N 57°41' E 011°42'0 0.1
2017-Jul-18 19:28N 57°41' E 011°42'0 0.0
2017-Jul-18 18:58N 57°41' E 011°42'0 0.0
2017-Jul-18 18:28N 57°41' E 011°42'0 0.0
2017-Jul-18 17:58N 57°41' E 011°42'0 0.0
2017-Jul-18 17:28N 57°41' E 011°42'0 0.0
2017-Jul-18 16:58N 57°41' E 011°42'0 0.0
2017-Jul-18 16:28N 57°41' E 011°42'0 0.0
2017-Jul-18 15:58N 57°41' E 011°42'0 0.0
2017-Jul-18 15:28N 57°41' E 011°42'0 0.0
2017-Jul-18 14:58N 57°41' E 011°42'5 4.8
2017-Jul-18 14:00N 57°41' E 011°50'1 2.1
2017-Jul-18 13:30N 57°41' E 011°52'0 0.0
2017-Jul-18 13:00N 57°41' E 011°52'0 0.0
2017-Jul-18 12:30N 57°41' E 011°52'0 0.0
2017-Jul-18 12:00N 57°41' E 011°52'0 0.0
2017-Jul-18 11:30N 57°41' E 011°52'0 0.0
2017-Jul-18 10:59N 57°41' E 011°52'0 0.0
2017-Jul-18 10:29N 57°41' E 011°52'0 0.0
2017-Jul-18 09:59N 57°41' E 011°52'0 0.0
2017-Jul-18 09:29N 57°41' E 011°52'0 0.0
2017-Jul-18 08:59N 57°41' E 011°52'0 0.0
2017-Jul-18 08:29N 57°41' E 011°52'0 0.0
2017-Jul-18 07:59N 57°41' E 011°52'0 0.0
2017-Jul-18 07:29N 57°41' E 011°52'0 0.0
2017-Jul-18 06:59N 57°41' E 011°52'0 0.0
2017-Jul-18 06:29N 57°41' E 011°52'0 0.0
2017-Jul-18 05:59N 57°41' E 011°52'0 0.0
2017-Jul-18 05:29N 57°41' E 011°52'0 0.0
2017-Jul-18 04:59N 57°41' E 011°52'0 0.0
2017-Jul-18 04:29N 57°41' E 011°52'0 0.0
2017-Jul-18 03:59N 57°41' E 011°52'0 0.0
2017-Jul-18 03:29N 57°41' E 011°52'0 0.0
2017-Jul-18 02:59N 57°41' E 011°52'0 0.0
2017-Jul-18 02:29N 57°41' E 011°52'0 0.0
2017-Jul-18 01:59N 57°41' E 011°52'0 0.0
2017-Jul-18 01:29N 57°41' E 011°52'0 0.0
2017-Jul-18 00:59N 57°41' E 011°52'0 0.0
2017-Jul-18 00:29N 57°41' E 011°52'0 0.0
2017-Jul-17 23:59N 57°41' E 011°52'0 0.0
2017-Jul-17 23:29N 57°41' E 011°52'0 0.0
2017-Jul-17 22:59N 57°41' E 011°52'0 0.0
2017-Jul-17 22:29N 57°41' E 011°52'0 0.0
2017-Jul-17 21:59N 57°41' E 011°52'0 0.0
2017-Jul-17 21:29N 57°41' E 011°52'0 0.0
2017-Jul-17 20:59N 57°41' E 011°52'0 0.0
2017-Jul-17 20:29N 57°41' E 011°52'0 0.0
2017-Jul-17 19:59N 57°41' E 011°52'0 0.0
2017-Jul-17 19:29N 57°41' E 011°52'0 0.0
2017-Jul-17 18:59N 57°41' E 011°52'0 0.0
2017-Jul-17 18:29N 57°41' E 011°52'0 0.0
2017-Jul-17 17:59N 57°41' E 011°52'0 0.0
2017-Jul-17 17:29N 57°41' E 011°52'0 0.0
2017-Jul-17 16:59N 57°41' E 011°52'0 0.0
2017-Jul-17 16:29N 57°41' E 011°52'0 0.0
2017-Jul-17 15:59N 57°41' E 011°52'0 0.0
2017-Jul-17 15:29N 57°41' E 011°52'0 0.0
2017-Jul-17 14:59N 57°41' E 011°52'0 0.0
2017-Jul-17 14:29N 57°41' E 011°52'0 0.0
2017-Jul-17 13:59N 57°41' E 011°52'0 0.0
2017-Jul-17 13:29N 57°41' E 011°52'0 0.0
2017-Jul-17 12:59N 57°41' E 011°52'0 0.0
2017-Jul-17 12:29N 57°41' E 011°52'0 0.0
2017-Jul-17 11:59N 57°41' E 011°52'0 0.0
2017-Jul-17 11:29N 57°41' E 011°52'0 0.0
2017-Jul-17 10:59N 57°41' E 011°52'0 0.0
2017-Jul-17 10:29N 57°41' E 011°52'0 0.0
2017-Jul-17 09:59N 57°41' E 011°52'0 0.0
2017-Jul-17 09:29N 57°41' E 011°52'0 0.0
2017-Jul-17 08:59N 57°41' E 011°52'0 0.0
2017-Jul-17 08:26N 57°41' E 011°52'0 0.0
2017-Jul-17 07:59N 57°41' E 011°52'0 0.0
2017-Jul-17 07:29N 57°41' E 011°52'0 0.0
2017-Jul-17 06:59N 57°41' E 011°52'0 0.0
2017-Jul-17 06:29N 57°41' E 011°52'0 0.0
2017-Jul-17 05:59N 57°41' E 011°52'0 0.0
2017-Jul-17 05:29N 57°41' E 011°52'0 0.0
2017-Jul-17 04:59N 57°41' E 011°52'0 0.0
2017-Jul-17 04:29N 57°41' E 011°52'0 0.0
2017-Jul-17 03:59N 57°41' E 011°52'0 0.0
2017-Jul-17 03:29N 57°41' E 011°52'0 0.0
2017-Jul-17 02:59N 57°41' E 011°52'0 0.0
2017-Jul-17 02:29N 57°41' E 011°52'0 0.0
2017-Jul-17 01:58N 57°41' E 011°52'0 0.0
2017-Jul-17 01:28N 57°41' E 011°52'0 0.0
2017-Jul-17 00:58N 57°41' E 011°52'0 0.0
2017-Jul-17 00:28N 57°41' E 011°52'0 0.0
2017-Jul-16 23:58N 57°41' E 011°52'0 0.0
2017-Jul-16 23:28N 57°41' E 011°52'0 0.0
2017-Jul-16 22:58N 57°41' E 011°52'0 0.0
2017-Jul-16 22:28N 57°41' E 011°52'0 0.0
2017-Jul-16 21:58N 57°41' E 011°52'0 0.0
2017-Jul-16 21:28N 57°41' E 011°52'0 0.0
2017-Jul-16 20:58N 57°41' E 011°52'0 0.0
2017-Jul-16 20:28N 57°41' E 011°52'0 0.0
2017-Jul-16 19:58N 57°41' E 011°52'0 0.0
2017-Jul-16 19:28N 57°41' E 011°52'0 0.0
2017-Jul-16 18:58N 57°41' E 011°52'0 0.0
2017-Jul-16 18:28N 57°41' E 011°52'0 0.0
2017-Jul-16 17:58N 57°41' E 011°52'0 0.0
2017-Jul-16 17:28N 57°41' E 011°52'0 0.0
2017-Jul-16 17:00N 57°41' E 011°52'1 1.8
2017-Jul-16 16:30N 57°41' E 011°51'2 4.1
2017-Jul-16 16:00N 57°40' E 011°48'0 0.1
2017-Jul-16 15:30N 57°40' E 011°48'0 0.1
2017-Jul-16 15:00N 57°40' E 011°48'0 0.1
2017-Jul-16 14:30N 57°40' E 011°48'0 0.1
2017-Jul-16 14:00N 57°40' E 011°47'0 0.1
2017-Jul-16 13:30N 57°40' E 011°47'0 0.0
2017-Jul-16 13:00N 57°40' E 011°47'0 0.2
2017-Jul-16 12:30N 57°40' E 011°48'2 4.1
2017-Jul-16 12:00N 57°39' E 011°44'510.6
2017-Jul-16 11:30N 57°35' E 011°39'5 9.6
2017-Jul-16 11:00N 57°30' E 011°37'5 9.8
2017-Jul-16 10:30N 57°25' E 011°36'5 9.9
2017-Jul-16 10:00N 57°20' E 011°36'5 9.8
2017-Jul-16 09:29N 57°15' E 011°36'5 9.7
2017-Jul-16 08:57N 57°10' E 011°39'5 9.7
2017-Jul-16 08:26N 57°06' E 011°42'4 9.7
2017-Jul-16 08:00N 57°01' E 011°44'20 9.2
2017-Jul-16 05:46N 56°41' E 011°50'3 9.7
2017-Jul-16 05:27N 56°39' E 011°47'31 9.8
2017-Jul-16 02:18N 56°12' E 011°19'57 8.6
2017-Jul-15 19:43N 55°16' E 011°05'2 9.8
2017-Jul-15 19:29N 55°14' E 011°06'5 9.3
2017-Jul-15 18:59N 55°10' E 011°03'5 9.7
2017-Jul-15 18:30N 55°05' E 011°03'5 9.7
2017-Jul-15 18:00N 55°00' E 011°02'5 9.4
2017-Jul-15 17:30N 54°56' E 010°57'5 9.6
2017-Jul-15 17:00N 54°52' E 010°53'5 9.7
2017-Jul-15 16:30N 54°47' E 010°52'5 9.8
2017-Jul-15 16:00N 54°42' E 010°53'5 9.6
2017-Jul-15 15:30N 54°40' E 011°00'5 9.6
2017-Jul-15 15:00N 54°37' E 011°07'9 9.4
2017-Jul-15 14:00N 54°33' E 011°22'5 9.7
2017-Jul-15 13:27N 54°31' E 011°30'4 9.6
2017-Jul-15 13:00N 54°29' E 011°37'5 9.6
2017-Jul-15 12:26N 54°27' E 011°46'4 9.5
2017-Jul-15 12:00N 54°27' E 011°53'5 9.3
2017-Jul-15 11:30N 54°27' E 012°01'10 7.9
2017-Jul-15 10:13N 54°33' E 012°14'2 9.8
2017-Jul-15 09:59N 54°35' E 012°15'4 9.1
2017-Jul-15 09:30N 54°39' E 012°20'5 9.6
2017-Jul-15 09:00N 54°41' E 012°27'5 9.7
2017-Jul-15 08:30N 54°44' E 012°34'5 9.7
2017-Jul-15 08:00N 54°47' E 012°41'5 9.3
2017-Jul-15 07:30N 54°48' E 012°48'5 9.5
2017-Jul-15 06:59N 54°50' E 012°56'5 9.5
2017-Jul-15 06:30N 54°51' E 013°04'5 9.5
2017-Jul-15 06:00N 54°53' E 013°12'5 9.5
2017-Jul-15 05:30N 54°55' E 013°20'5 9.5
2017-Jul-15 05:00N 54°56' E 013°27'5 9.5
2017-Jul-15 04:30N 54°58' E 013°35'5 9.5
2017-Jul-15 04:00N 54°60' E 013°43'5 9.5
2017-Jul-15 03:30N 55°01' E 013°50'5 9.5
2017-Jul-15 03:00N 55°03' E 013°58'5 9.4
2017-Jul-15 02:30N 55°05' E 014°06'5 9.5
2017-Jul-15 02:00N 55°08' E 014°11'5 9.5
2017-Jul-15 01:30N 55°12' E 014°16'5 9.5
2017-Jul-15 01:00N 55°16' E 014°21'5 9.5
2017-Jul-15 00:30N 55°20' E 014°26'5 9.5
2017-Jul-15 00:00N 55°23' E 014°31'5 9.4
2017-Jul-14 23:30N 55°27' E 014°37'5 9.4
2017-Jul-14 23:00N 55°30' E 014°44'5 9.5
2017-Jul-14 22:30N 55°32' E 014°51'5 9.3
2017-Jul-14 22:00N 55°34' E 014°58'5 9.4
2017-Jul-14 21:30N 55°37' E 015°05'5 9.5
2017-Jul-14 21:00N 55°39' E 015°13'5 9.5
2017-Jul-14 20:30N 55°41' E 015°20'5 9.5
2017-Jul-14 20:00N 55°44' E 015°27'5 9.5
2017-Jul-14 19:30N 55°46' E 015°34'5 9.5
2017-Jul-14 19:00N 55°49' E 015°42'5 9.5
2017-Jul-14 18:30N 55°51' E 015°49'5 9.5
2017-Jul-14 18:00N 55°53' E 015°56'5 9.4
2017-Jul-14 17:30N 55°55' E 016°04'5 9.1
2017-Jul-14 17:00N 55°57' E 016°11'4 9.0
2017-Jul-14 16:30N 55°59' E 016°18'5 9.5
2017-Jul-14 16:00N 56°02' E 016°26'5 9.5
2017-Jul-14 15:30N 56°04' E 016°33'5 9.5
2017-Jul-14 15:00N 56°07' E 016°40'5 9.5
2017-Jul-14 14:30N 56°10' E 016°47'5 9.5
2017-Jul-14 13:58N 56°13' E 016°54'5 9.5
2017-Jul-14 13:29N 56°16' E 017°01'5 9.5
2017-Jul-14 13:00N 56°18' E 017°07'5 9.5
2017-Jul-14 12:30N 56°21' E 017°14'19710.1
2017-Jul-13 17:05N 58°51' E 021°12'110.5
2017-Jul-13 16:58N 58°52' E 021°14'510.5
2017-Jul-13 16:30N 58°55' E 021°19'510.5
2017-Jul-13 16:01N 58°60' E 021°25'510.5
2017-Jul-13 15:30N 59°04' E 021°32'510.5
2017-Jul-13 15:01N 59°08' E 021°38'510.5
2017-Jul-13 14:30N 59°11' E 021°46'510.5
2017-Jul-13 14:00N 59°15' E 021°54'510.5
2017-Jul-13 13:30N 59°18' E 022°02'510.5
2017-Jul-13 13:00N 59°21' E 022°10'510.4
2017-Jul-13 12:30N 59°24' E 022°18'510.5
2017-Jul-13 12:01N 59°27' E 022°26'510.4
2017-Jul-13 11:31N 59°30' E 022°35'510.5
2017-Jul-13 11:01N 59°33' E 022°44'510.5
2017-Jul-13 10:31N 59°34' E 022°54'510.5
2017-Jul-13 10:00N 59°36' E 023°04'510.0
2017-Jul-13 09:30N 59°37' E 023°13'510.5
2017-Jul-13 09:00N 59°38' E 023°23'510.5
2017-Jul-13 08:31N 59°40' E 023°33'510.5
2017-Jul-13 08:01N 59°41' E 023°43'510.4
2017-Jul-13 07:31N 59°43' E 023°53'510.5
2017-Jul-13 07:01N 59°44' E 024°03'510.5
2017-Jul-13 06:30N 59°46' E 024°13'510.5
2017-Jul-13 06:01N 59°47' E 024°23'510.5
2017-Jul-13 05:30N 59°48' E 024°33'510.5
2017-Jul-13 05:01N 59°49' E 024°43'510.5
2017-Jul-13 04:30N 59°50' E 024°54'510.5
2017-Jul-13 04:00N 59°51' E 025°04'510.5
2017-Jul-13 03:31N 59°52' E 025°14'510.5
2017-Jul-13 03:00N 59°53' E 025°24'510.5
2017-Jul-13 02:30N 59°54' E 025°35'510.5
2017-Jul-13 02:01N 59°55' E 025°45'510.5
2017-Jul-13 01:31N 59°57' E 025°55'510.5
2017-Jul-13 01:01N 59°58' E 026°05'510.5
2017-Jul-13 00:30N 59°59' E 026°15'510.5
2017-Jul-13 00:00N 60°01' E 026°25'510.4
2017-Jul-12 23:31N 60°02' E 026°35'510.7
2017-Jul-12 23:01N 60°01' E 026°46'611.5
2017-Jul-12 22:30N 59°60' E 026°57'510.1
2017-Jul-12 22:00N 60°00' E 027°07'510.2
2017-Jul-12 21:30N 60°03' E 027°16'5 9.8
2017-Jul-12 21:00N 60°06' E 027°24'510.6
2017-Jul-12 20:30N 60°08' E 027°33'510.1
2017-Jul-12 20:00N 60°11' E 027°42'510.6
2017-Jul-12 19:30N 60°11' E 027°53'5 9.4
2017-Jul-12 19:00N 60°10' E 028°02'510.3
2017-Jul-12 18:31N 60°09' E 028°12'611.7
2017-Jul-12 18:00N 60°06' E 028°22'510.2
2017-Jul-12 17:30N 60°03' E 028°31'4 8.1
2017-Jul-12 17:00N 60°00' E 028°36'  

Dump ship's entire track history